createdAt,value
2022-08-26T00:01:54.738Z,99779.34
2022-08-26T00:04:23.565Z,99765.09
2022-08-26T00:06:51.787Z,99766.53
2022-08-26T00:09:20.129Z,99770.94
2022-08-26T00:11:48.159Z,99765.94
2022-08-26T00:14:16.718Z,99764.28
2022-08-26T00:16:47.908Z,99770.31
2022-08-26T00:19:18.356Z,99774.19
2022-08-26T00:21:46.182Z,99772.53
2022-08-26T00:24:16.109Z,99777.53
2022-08-26T00:26:43.830Z,99783.00
2022-08-26T00:29:13.068Z,99780.63
2022-08-26T00:31:41.381Z,99777.66
2022-08-26T00:34:11.205Z,99776.84
2022-08-26T00:36:41.227Z,99773.06
2022-08-26T00:39:09.315Z,99779.91
2022-08-26T00:41:39.153Z,99774.44
2022-08-26T00:44:08.639Z,99771.72
2022-08-26T00:46:40.033Z,99779.34
2022-08-26T00:49:17.896Z,99775.81
2022-08-26T00:51:51.726Z,99772.25
2022-08-26T00:54:22.020Z,99775.53
2022-08-26T00:56:55.575Z,99772.94
2022-08-26T00:59:24.815Z,99762.88
2022-08-26T01:01:53.270Z,99772.44
2022-08-26T01:04:23.683Z,99770.53
2022-08-26T01:06:55.711Z,99771.09
2022-08-26T01:09:24.219Z,99776.56
2022-08-26T01:11:56.615Z,99765.94
2022-08-26T01:14:27.425Z,99763.72
2022-08-26T01:16:55.096Z,99770.28
2022-08-26T01:19:26.196Z,99766.50
2022-08-26T01:21:58.858Z,99764.63
2022-08-26T01:24:29.884Z,99763.00
2022-08-26T01:27:01.617Z,99763.53
2022-08-26T01:29:31.880Z,99767.09
2022-08-26T01:32:00.208Z,99771.25
2022-08-26T01:34:32.081Z,99774.22
2022-08-26T01:37:05.532Z,99779.41
2022-08-26T01:39:37.219Z,99786.00
2022-08-26T01:42:10.385Z,99787.91
2022-08-26T01:44:44.387Z,99787.91
2022-08-26T01:47:14.036Z,99791.50
2022-08-26T01:49:44.056Z,99782.47
2022-08-26T01:52:15.159Z,99787.13
2022-08-26T01:54:46.366Z,99786.59
2022-08-26T01:57:21.053Z,99789.34
2022-08-26T01:59:50.243Z,99787.13
2022-08-26T02:02:18.344Z,99790.66
2022-08-26T02:04:53.113Z,99791.22
2022-08-26T02:07:23.499Z,99784.13
2022-08-26T02:09:56.787Z,99784.13
2022-08-26T02:12:27.124Z,99780.88
2022-08-26T02:14:59.159Z,99786.03
2022-08-26T02:17:35.942Z,99794.81
2022-08-26T02:20:04.770Z,99782.25
2022-08-26T02:22:34.268Z,99785.50
2022-08-26T02:25:13.274Z,99781.41
2022-08-26T02:27:41.928Z,99790.97
2022-08-26T02:30:13.983Z,99784.41
2022-08-26T02:32:41.923Z,99786.06
2022-08-26T02:35:12.497Z,99790.69
2022-08-26T02:37:41.870Z,99786.31
2022-08-26T02:40:14.192Z,99789.03
2022-08-26T02:42:42.806Z,99780.06
2022-08-26T02:45:11.681Z,99783.31
2022-08-26T02:47:39.613Z,99786.31
2022-08-26T02:50:08.188Z,99788.22
2022-08-26T02:52:35.868Z,99783.03
2022-08-26T02:55:05.911Z,99786.31
2022-08-26T02:57:35.026Z,99775.63
2022-08-26T03:00:03.084Z,99779.47
2022-08-26T03:02:30.800Z,99780.81
2022-08-26T03:05:02.275Z,99780.53
2022-08-26T03:07:30.382Z,99776.72
2022-08-26T03:09:58.885Z,99777.28
2022-08-26T03:12:26.529Z,99775.88
2022-08-26T03:14:56.197Z,99778.91
2022-08-26T03:17:24.086Z,99777.00
2022-08-26T03:19:57.182Z,99776.44
2022-08-26T03:22:26.136Z,99772.91
2022-08-26T03:24:54.947Z,99784.38
2022-08-26T03:27:22.583Z,99773.13
2022-08-26T03:30:08.148Z,99773.13
2022-08-26T03:32:41.555Z,99770.38
2022-08-26T03:35:09.729Z,99769.56
2022-08-26T03:37:37.481Z,99774.22
2022-08-26T03:40:10.391Z,99764.91
2022-08-26T03:42:39.200Z,99763.00
2022-08-26T03:45:10.405Z,99767.41
2022-08-26T03:47:38.244Z,99766.03
2022-08-26T03:50:10.238Z,99760.03
2022-08-26T03:52:43.026Z,99770.66
2022-08-26T03:55:12.047Z,99761.13
2022-08-26T03:57:40.076Z,99765.25
2022-08-26T04:00:14.363Z,99767.44
2022-08-26T04:02:48.763Z,99769.91
2022-08-26T04:05:20.356Z,99772.34
2022-08-26T04:07:48.657Z,99767.97
2022-08-26T04:10:20.192Z,99769.06
2022-08-26T04:12:48.324Z,99769.06
2022-08-26T04:15:17.764Z,99764.69
2022-08-26T04:17:45.905Z,99764.16
2022-08-26T04:20:16.193Z,99772.88
2022-08-26T04:22:45.400Z,99765.69
2022-08-26T04:25:13.906Z,99764.06
2022-08-26T04:27:41.673Z,99767.59
2022-08-26T04:30:10.646Z,99764.00
2022-08-26T04:32:38.580Z,99764.88
2022-08-26T04:35:07.126Z,99764.84
2022-08-26T04:37:37.038Z,99767.63
2022-08-26T04:40:10.054Z,99769.03
2022-08-26T04:42:37.801Z,99765.78
2022-08-26T04:45:10.419Z,99765.50
2022-08-26T04:47:40.777Z,99768.19
2022-08-26T04:50:09.672Z,99768.72
2022-08-26T04:52:39.108Z,99778.53
2022-08-26T04:55:09.322Z,99767.28
2022-08-26T04:57:37.153Z,99773.28
2022-08-26T05:00:06.709Z,99769.94
2022-08-26T05:02:34.597Z,99770.78
2022-08-26T05:05:02.599Z,99769.72
2022-08-26T05:07:31.237Z,99779.03
2022-08-26T05:10:00.272Z,99764.91
2022-08-26T05:12:29.614Z,99772.00
2022-08-26T05:14:57.467Z,99768.72
2022-08-26T05:17:25.134Z,99771.44
2022-08-26T05:19:52.765Z,99776.88
2022-08-26T05:22:21.049Z,99774.94
2022-08-26T05:24:48.818Z,99774.94
2022-08-26T05:27:16.766Z,99783.91
2022-08-26T05:29:46.907Z,99782.47
2022-08-26T05:32:22.441Z,99784.34
2022-08-26T05:34:55.361Z,99786.53
2022-08-26T05:37:23.056Z,99791.38
2022-08-26T05:39:51.492Z,99800.63
2022-08-26T05:42:19.836Z,99802.78
2022-08-26T05:44:55.619Z,99792.88
2022-08-26T05:47:24.191Z,99798.03
2022-08-26T05:49:51.977Z,99798.94
2022-08-26T05:52:20.029Z,99794.66
2022-08-26T05:54:47.853Z,99798.13
2022-08-26T05:57:16.005Z,99803.59
2022-08-26T05:59:46.309Z,99804.72
2022-08-26T06:02:15.304Z,99800.75
2022-08-26T06:04:43.377Z,99808.47
2022-08-26T06:07:12.074Z,99810.94
2022-08-26T06:09:41.466Z,99805.09
2022-08-26T06:12:09.652Z,99802.69
2022-08-26T06:14:37.294Z,99798.53
2022-08-26T06:17:04.960Z,99792.56
2022-08-26T06:19:34.423Z,99799.38
2022-08-26T06:22:23.416Z,99797.16
2022-08-26T06:25:09.037Z,99798.03
2022-08-26T06:27:37.786Z,99802.84
2022-08-26T06:30:06.447Z,99804.50
2022-08-26T06:32:34.144Z,99812.28
2022-08-26T06:35:03.500Z,99805.81
2022-08-26T06:37:31.223Z,99805.38
2022-08-26T06:40:00.739Z,99813.50
2022-08-26T06:42:28.511Z,99813.16
2022-08-26T06:44:56.625Z,99816.78
2022-08-26T06:47:24.439Z,99811.06
2022-08-26T06:49:52.615Z,99818.34
2022-08-26T06:52:24.368Z,99815.66
2022-08-26T06:54:52.353Z,99824.00
2022-08-26T06:57:20.739Z,99815.09
2022-08-26T06:59:51.096Z,99820.75
2022-08-26T07:02:19.531Z,99827.69
2022-08-26T07:04:48.519Z,99822.28
2022-08-26T07:07:21.964Z,99824.00
2022-08-26T07:09:52.440Z,99814.88
2022-08-26T07:12:20.503Z,99817.25
2022-08-26T07:14:48.483Z,99809.91
2022-08-26T07:17:16.332Z,99803.31
2022-08-26T07:19:44.245Z,99795.84
2022-08-26T07:22:12.003Z,99795.25
2022-08-26T07:24:42.569Z,99794.00
2022-08-26T07:27:15.652Z,99796.78
2022-08-26T07:29:44.787Z,99796.78
2022-08-26T07:32:14.485Z,99798.16
2022-08-26T07:34:43.281Z,99791.66
2022-08-26T07:37:11.556Z,99793.72
2022-08-26T07:39:40.489Z,99794.03
2022-08-26T07:42:11.698Z,99788.84
2022-08-26T07:44:41.490Z,99782.00
2022-08-26T07:47:10.166Z,99790.69
2022-08-26T07:49:47.216Z,99795.78
2022-08-26T07:52:25.320Z,99782.03
2022-08-26T07:54:54.352Z,99783.28
2022-08-26T07:57:22.042Z,99789.72
2022-08-26T07:59:53.964Z,99790.72
2022-08-26T08:02:23.919Z,99783.69
2022-08-26T08:04:52.240Z,99790.47
2022-08-26T08:07:20.207Z,99785.44
2022-08-26T08:09:49.679Z,99792.16
2022-08-26T08:12:17.988Z,99793.56
2022-08-26T08:14:46.842Z,99795.91
2022-08-26T08:17:17.491Z,99795.91
2022-08-26T08:19:46.875Z,99794.72
2022-08-26T08:22:17.116Z,99798.06
2022-08-26T08:24:45.864Z,99805.03
2022-08-26T08:27:22.834Z,99796.44
2022-08-26T08:29:54.093Z,99805.31
2022-08-26T08:32:23.711Z,99801.16
2022-08-26T08:34:51.669Z,99795.28
2022-08-26T08:37:21.320Z,99789.53
2022-08-26T08:39:49.156Z,99792.94
2022-08-26T08:42:37.719Z,99793.25
2022-08-26T08:45:10.205Z,99788.22
2022-08-26T08:47:43.859Z,99791.53
2022-08-26T08:50:22.706Z,99788.19
2022-08-26T08:52:56.172Z,99788.91
2022-08-26T08:55:29.526Z,99788.72
2022-08-26T08:58:06.582Z,99787.69
2022-08-26T09:00:43.727Z,99786.78
2022-08-26T09:03:25.429Z,99791.00
2022-08-26T09:05:55.422Z,99784.94
2022-08-26T09:08:29.365Z,99784.22
2022-08-26T09:10:59.519Z,99789.69
2022-08-26T09:13:29.046Z,99787.38
2022-08-26T09:16:08.292Z,99791.97
2022-08-26T09:18:54.130Z,99791.25
2022-08-26T09:21:25.299Z,99791.25
2022-08-26T09:23:55.362Z,99789.78
2022-08-26T09:26:29.671Z,99792.59
2022-08-26T09:29:00.564Z,99792.88
2022-08-26T09:31:31.134Z,99788.13
2022-08-26T09:34:17.528Z,99787.63
2022-08-26T09:36:47.291Z,99795.56
2022-08-26T09:39:34.711Z,99794.81
2022-08-26T09:42:11.505Z,99782.78
2022-08-26T09:44:57.860Z,99780.97
2022-08-26T09:47:30.063Z,99776.59
2022-08-26T09:50:04.216Z,99779.28
2022-08-26T09:52:37.343Z,99772.34
2022-08-26T09:55:13.634Z,99771.53
2022-08-26T09:57:52.457Z,99768.91
2022-08-26T10:00:31.430Z,99771.13
2022-08-26T10:03:01.148Z,99753.00
2022-08-26T10:05:36.936Z,99757.03
2022-08-26T10:08:20.858Z,99759.38
2022-08-26T10:10:53.070Z,99749.03
2022-08-26T10:13:26.881Z,99750.44
2022-08-26T10:16:10.847Z,99742.13
2022-08-26T10:18:43.013Z,99734.72
2022-08-26T10:21:18.039Z,99734.84
2022-08-26T10:23:50.953Z,99731.66
2022-08-26T10:26:26.278Z,99719.66
2022-08-26T10:28:58.362Z,99725.44
2022-08-26T10:31:38.274Z,99723.81
2022-08-26T10:34:09.367Z,99718.06
2022-08-26T10:37:14.896Z,99712.50
2022-08-26T10:39:46.171Z,99707.78
2022-08-26T10:42:22.272Z,99710.69
2022-08-26T10:44:54.037Z,99704.53
2022-08-26T10:47:32.484Z,99695.25
2022-08-26T10:50:03.250Z,99697.38
2022-08-26T10:52:48.396Z,99695.84
2022-08-26T10:55:20.799Z,99704.56
2022-08-26T10:57:58.249Z,99693.72
2022-08-26T11:00:49.110Z,99701.44
2022-08-26T11:03:31.439Z,99694.78
2022-08-26T11:06:21.054Z,99694.69
2022-08-26T11:08:50.988Z,99686.19
2022-08-26T11:11:49.088Z,99685.78
2022-08-26T11:14:44.654Z,99688.34
2022-08-26T11:17:56.333Z,99686.22
2022-08-26T11:20:35.175Z,99682.53
2022-08-26T11:23:37.910Z,99685.38
2022-08-26T11:26:37.731Z,99681.97
2022-08-26T11:29:11.978Z,99681.66
2022-08-26T11:31:55.526Z,99680.44
2022-08-26T11:34:52.444Z,99676.63
2022-08-26T11:39:57.306Z,99677.69
2022-08-26T11:42:36.091Z,99663.91
2022-08-26T11:45:15.395Z,99659.38
2022-08-26T11:47:43.199Z,99658.63
2022-08-26T11:50:15.233Z,99653.97
2022-08-26T11:52:51.971Z,99662.28
2022-08-26T11:55:20.065Z,99662.91
2022-08-26T11:57:56.813Z,99649.91
2022-08-26T12:00:31.442Z,99652.09
2022-08-26T12:03:07.638Z,99653.88
2022-08-26T12:05:39.717Z,99655.81
2022-08-26T12:08:10.062Z,99652.63
2022-08-26T12:10:39.058Z,99654.59
2022-08-26T12:13:10.079Z,99653.06
2022-08-26T12:15:38.174Z,99655.13
2022-08-26T12:18:28.912Z,99646.59
2022-08-26T12:21:00.179Z,99652.78
2022-08-26T12:23:40.153Z,99653.22
2022-08-26T12:26:11.879Z,99632.94
2022-08-26T12:28:50.691Z,99638.44
2022-08-26T12:31:24.883Z,99630.72
2022-08-26T12:33:56.296Z,99632.03
2022-08-26T12:36:31.353Z,99619.97
2022-08-26T12:39:08.479Z,99622.84
2022-08-26T12:41:42.470Z,99620.31
2022-08-26T12:44:39.129Z,99605.84
2022-08-26T12:47:10.844Z,99606.84
2022-08-26T12:49:39.924Z,99607.59
2022-08-26T12:52:29.716Z,99614.28
2022-08-26T12:55:00.024Z,99618.78
2022-08-26T12:57:31.267Z,99615.47
2022-08-26T13:00:32.983Z,99612.19
2022-08-26T13:03:01.757Z,99617.81
2022-08-26T13:05:34.066Z,99612.94
2022-08-26T13:08:25.928Z,99612.75
2022-08-26T13:11:05.239Z,99607.13
2022-08-26T13:13:34.561Z,99600.09
2022-08-26T13:16:04.058Z,99593.75
2022-08-26T13:18:31.708Z,99591.81
2022-08-26T13:20:59.447Z,99589.50
2022-08-26T13:23:27.065Z,99583.53
2022-08-26T13:25:54.690Z,99581.00
2022-08-26T13:28:22.280Z,99574.25
2022-08-26T13:30:49.956Z,99573.59
2022-08-26T13:33:19.321Z,99570.13
2022-08-26T13:35:48.135Z,99558.91
2022-08-26T13:38:20.591Z,99559.00
2022-08-26T13:41:02.652Z,99555.22
2022-08-26T13:43:30.519Z,99551.28
2022-08-26T13:45:58.195Z,99550.66
2022-08-26T13:48:27.526Z,99544.91
2022-08-26T13:50:55.368Z,99546.19
2022-08-26T13:53:23.264Z,99546.88
2022-08-26T13:55:51.007Z,99549.28
2022-08-26T13:58:18.766Z,99547.72
2022-08-26T14:00:46.542Z,99554.28
2022-08-26T14:03:15.090Z,99555.72
2022-08-26T14:05:44.132Z,99562.75
2022-08-26T14:08:12.068Z,99572.69
2022-08-26T14:10:39.777Z,99578.88
2022-08-26T14:13:08.298Z,99579.09
2022-08-26T14:15:38.949Z,99592.50
2022-08-26T14:18:09.995Z,99582.03
2022-08-26T14:20:39.193Z,99587.50
2022-08-26T14:23:14.265Z,99591.78
2022-08-26T14:25:42.356Z,99592.28
2022-08-26T14:28:10.352Z,99603.31
2022-08-26T14:30:40.852Z,99601.56
2022-08-26T14:33:12.928Z,99605.41
2022-08-26T14:35:47.935Z,99593.91
2022-08-26T14:38:18.277Z,99590.34
2022-08-26T14:40:46.373Z,99589.81
2022-08-26T14:43:16.104Z,99594.63
2022-08-26T14:45:45.701Z,99587.50
2022-08-26T14:48:13.759Z,99584.94
2022-08-26T14:50:41.954Z,99585.91
2022-08-26T14:53:27.216Z,99591.13
2022-08-26T14:55:56.227Z,99587.38
2022-08-26T14:58:23.989Z,99588.41
2022-08-26T15:00:51.623Z,99578.34
2022-08-26T15:05:51.805Z,99575.84
2022-08-26T15:08:20.716Z,99573.44
2022-08-26T15:10:48.308Z,99577.47
2022-08-26T15:13:17.750Z,99584.63
2022-08-26T15:15:45.448Z,99590.34
2022-08-26T15:18:13.188Z,99586.56
2022-08-26T15:20:41.004Z,99584.97
2022-08-26T15:23:08.792Z,99577.34
2022-08-26T15:25:37.099Z,99576.72
2022-08-26T15:28:06.180Z,99588.41
2022-08-26T15:30:35.289Z,99600.59
2022-08-26T15:33:03.249Z,99592.84
2022-08-26T15:35:32.917Z,99599.16
2022-08-26T15:38:03.099Z,99598.84
2022-08-26T15:40:30.788Z,99597.38
2022-08-26T15:43:17.885Z,99602.06
2022-08-26T15:45:47.601Z,99599.50
2022-08-26T15:48:16.241Z,99604.97
2022-08-26T15:50:51.478Z,99606.13
2022-08-26T15:53:19.300Z,99599.28
2022-08-26T15:55:48.867Z,99604.97
2022-08-26T15:58:17.910Z,99604.81
2022-08-26T16:00:46.884Z,99604.97
2022-08-26T16:03:14.612Z,99609.03
2022-08-26T16:05:44.345Z,99610.31
2022-08-26T16:08:12.431Z,99599.75
2022-08-26T16:10:45.439Z,99605.75
2022-08-26T16:13:17.378Z,99590.22
2022-08-26T16:15:45.190Z,99590.97
2022-08-26T16:18:15.394Z,99599.06
2022-08-26T16:20:58.554Z,99597.75
2022-08-26T16:23:38.314Z,99614.31
2022-08-26T16:26:16.605Z,99612.06
2022-08-26T16:28:51.064Z,99617.22
2022-08-26T16:31:19.312Z,99623.91
2022-08-26T16:33:48.560Z,99616.94
2022-08-26T16:36:16.640Z,99626.66
2022-08-26T16:38:50.279Z,99628.09
2022-08-26T16:41:18.463Z,99636.88
2022-08-26T16:43:46.587Z,99640.28
2022-08-26T16:46:16.110Z,99633.66
2022-08-26T16:48:45.131Z,99640.63
2022-08-26T16:51:16.030Z,99635.00
2022-08-26T16:53:44.293Z,99640.69
2022-08-26T16:56:15.528Z,99638.59
2022-08-26T16:58:43.470Z,99633.06
2022-08-26T17:01:11.656Z,99637.63
2022-08-26T17:03:39.547Z,99630.31
2022-08-26T17:06:09.901Z,99639.41
2022-08-26T17:08:39.724Z,99649.00
2022-08-26T17:11:08.347Z,99649.16
2022-08-26T17:13:37.989Z,99651.78
2022-08-26T17:16:07.568Z,99655.34
2022-08-26T17:18:37.043Z,99649.94
2022-08-26T17:21:08.100Z,99659.97
2022-08-26T17:23:37.032Z,99663.53
2022-08-26T17:26:06.234Z,99666.06
2022-08-26T17:28:34.577Z,99668.97
2022-08-26T17:31:02.680Z,99665.59
2022-08-26T17:33:30.878Z,99666.91
2022-08-26T17:35:58.557Z,99661.84
2022-08-26T17:38:29.162Z,99667.81
2022-08-26T17:40:57.324Z,99671.41
2022-08-26T17:43:27.671Z,99676.63
2022-08-26T17:46:06.690Z,99680.50
2022-08-26T17:48:35.589Z,99688.22
2022-08-26T17:51:07.682Z,99696.13
2022-08-26T17:53:35.496Z,99698.41
2022-08-26T17:56:05.640Z,99706.53
2022-08-26T17:58:37.733Z,99705.94
2022-08-26T18:01:06.390Z,99704.19
2022-08-26T18:03:35.083Z,99706.84
2022-08-26T18:06:03.700Z,99704.19
2022-08-26T18:08:31.322Z,99712.13
2022-08-26T18:10:59.046Z,99712.44
2022-08-26T18:13:26.928Z,99712.47
2022-08-26T18:15:56.254Z,99713.41
2022-08-26T18:18:23.932Z,99718.59
2022-08-26T18:20:52.579Z,99717.34
2022-08-26T18:23:31.483Z,99717.56
2022-08-26T18:25:59.330Z,99719.59
2022-08-26T18:28:26.973Z,99721.31
2022-08-26T18:30:56.990Z,99721.69
2022-08-26T18:33:25.537Z,99725.25
2022-08-26T18:35:53.654Z,99730.94
2022-08-26T18:38:21.196Z,99729.91
2022-08-26T18:40:50.193Z,99729.50
2022-08-26T18:43:17.878Z,99721.03
2022-08-26T18:45:45.662Z,99730.25
2022-08-26T18:48:14.920Z,99736.06
2022-08-26T18:50:46.981Z,99736.47
2022-08-26T18:53:15.610Z,99739.28
2022-08-26T18:55:43.277Z,99738.31
2022-08-26T18:58:11.648Z,99756.53
2022-08-26T19:00:39.489Z,99744.84
2022-08-26T19:03:08.308Z,99755.72
2022-08-26T19:05:47.964Z,99748.72
2022-08-26T19:08:15.531Z,99747.34
2022-08-26T19:10:43.162Z,99748.78
2022-08-26T19:13:11.241Z,99753.13
2022-08-26T19:15:40.216Z,99760.81
2022-08-26T19:18:08.548Z,99757.91
2022-08-26T19:20:41.485Z,99769.25
2022-08-26T19:23:30.563Z,99762.72
2022-08-26T19:26:00.021Z,99762.22
2022-08-26T19:28:27.627Z,99777.59
2022-08-26T19:30:55.420Z,99774.28
2022-08-26T19:33:23.168Z,99784.16
2022-08-26T19:35:50.934Z,99788.66
2022-08-26T19:38:20.170Z,99795.38
2022-08-26T19:40:48.435Z,99792.91
2022-08-26T19:43:16.210Z,99801.94
2022-08-26T19:45:44.649Z,99792.91
2022-08-26T19:48:12.296Z,99800.34
2022-08-26T19:50:40.187Z,99792.22
2022-08-26T19:53:07.821Z,99795.25
2022-08-26T19:55:37.051Z,99792.22
2022-08-26T19:58:04.936Z,99790.44
2022-08-26T20:00:33.628Z,99785.00
2022-08-26T20:03:01.484Z,99794.28
2022-08-26T20:05:29.387Z,99797.63
2022-08-26T20:07:57.107Z,99782.50
2022-08-26T20:10:25.698Z,99788.94
2022-08-26T20:12:54.747Z,99773.81
2022-08-26T20:15:23.703Z,99782.94
2022-08-26T20:17:51.548Z,99780.69
2022-08-26T20:20:37.234Z,99785.38
2022-08-26T20:23:06.115Z,99778.56
2022-08-26T20:25:34.564Z,99788.16
2022-08-26T20:28:03.936Z,99784.94
2022-08-26T20:30:31.814Z,99783.03
2022-08-26T20:32:59.489Z,99785.88
2022-08-26T20:35:27.367Z,99787.44
2022-08-26T20:37:54.980Z,99792.81
2022-08-26T20:40:23.050Z,99794.19
2022-08-26T20:42:50.725Z,99794.47
2022-08-26T20:45:19.888Z,99806.91
2022-08-26T20:47:47.531Z,99807.84
2022-08-26T20:50:15.131Z,99805.63
2022-08-26T20:52:42.755Z,99810.13
2022-08-26T20:55:12.884Z,99809.47
2022-08-26T20:57:43.164Z,99811.66
2022-08-26T21:00:14.147Z,99807.72
2022-08-26T21:02:44.094Z,99805.22
2022-08-26T21:05:11.829Z,99813.28
2022-08-26T21:07:39.527Z,99813.41
2022-08-26T21:10:07.649Z,99812.34
2022-08-26T21:12:36.247Z,99808.72
2022-08-26T21:15:04.068Z,99816.38
2022-08-26T21:17:32.276Z,99814.44
2022-08-26T21:20:01.480Z,99822.44
2022-08-26T21:22:30.238Z,99822.31
2022-08-26T21:24:58.195Z,99824.47
2022-08-26T21:27:26.523Z,99819.72
2022-08-26T21:29:55.594Z,99819.00
2022-08-26T21:32:23.333Z,99819.03
2022-08-26T21:34:51.024Z,99824.47
2022-08-26T21:37:20.020Z,99827.22
2022-08-26T21:39:47.683Z,99822.22
2022-08-26T21:42:15.646Z,99823.66
2022-08-26T21:44:45.034Z,99824.97
2022-08-26T21:47:20.717Z,99828.41
2022-08-26T21:49:48.472Z,99824.84
2022-08-26T21:52:16.330Z,99830.28
2022-08-26T21:54:49.374Z,99825.41
2022-08-26T21:57:17.653Z,99831.16
2022-08-26T21:59:45.376Z,99842.78
2022-08-26T22:02:13.273Z,99841.63
2022-08-26T22:04:43.657Z,99834.56
2022-08-26T22:07:14.601Z,99836.00
2022-08-26T22:09:42.559Z,99839.03
2022-08-26T22:12:16.007Z,99835.22
2022-08-26T22:14:43.662Z,99838.28
2022-08-26T22:17:11.389Z,99836.34
2022-08-26T22:19:46.377Z,99834.50
2022-08-26T22:22:14.991Z,99841.69
2022-08-26T22:24:43.229Z,99841.09
2022-08-26T22:27:11.924Z,99842.75
2022-08-26T22:29:40.993Z,99838.44
2022-08-26T22:32:09.382Z,99844.50
2022-08-26T22:34:38.316Z,99842.38
2022-08-26T22:37:06.408Z,99850.63
2022-08-26T22:39:34.295Z,99851.38
2022-08-26T22:42:02.526Z,99851.16
2022-08-26T22:44:30.494Z,99841.84
2022-08-26T22:47:01.223Z,99851.72
2022-08-26T22:49:28.988Z,99850.63
2022-08-26T22:51:56.597Z,99853.56
2022-08-26T22:54:24.718Z,99853.50
2022-08-26T22:56:52.311Z,99855.13
2022-08-26T22:59:19.961Z,99853.22
2022-08-26T23:01:47.695Z,99855.59
2022-08-26T23:04:16.677Z,99856.69
2022-08-26T23:06:47.567Z,99852.34
2022-08-26T23:09:17.798Z,99856.25
2022-08-26T23:11:47.162Z,99862.84
2022-08-26T23:14:15.495Z,99860.34
2022-08-26T23:16:43.447Z,99861.50
2022-08-26T23:19:12.703Z,99863.16
2022-08-26T23:21:41.933Z,99863.94
2022-08-26T23:24:10.058Z,99857.44
2022-08-26T23:26:38.497Z,99868.38
2022-08-26T23:29:08.241Z,99861.22
2022-08-26T23:31:37.538Z,99864.78
2022-08-26T23:34:22.626Z,99861.56
2022-08-26T23:36:53.892Z,99859.69
2022-08-26T23:39:22.157Z,99861.34
2022-08-26T23:41:49.821Z,99865.75
2022-08-26T23:44:17.470Z,99868.44
2022-08-26T23:46:45.049Z,99866.22
2022-08-26T23:49:12.790Z,99867.97
2022-08-26T23:51:58.019Z,99869.34
2022-08-26T23:54:27.055Z,99857.03
2022-08-26T23:56:54.689Z,99862.78
2022-08-26T23:59:22.394Z,99864.13
